sensor_id;sensor_type;location;lat;lon;timestamp;temperature;humidity
65072;DHT22;51663;52.310;17.016;2022-09-09T00:03:17;36.60;35.60
65072;DHT22;51663;52.310;17.016;2022-09-09T00:06:27;36.60;35.70
65072;DHT22;51663;52.310;17.016;2022-09-09T00:09:45;36.70;36.20
65072;DHT22;51663;52.310;17.016;2022-09-09T00:13:05;36.70;35.50
65072;DHT22;51663;52.310;17.016;2022-09-09T00:16:17;36.60;35.30
65072;DHT22;51663;52.310;17.016;2022-09-09T00:19:43;36.60;35.10
65072;DHT22;51663;52.310;17.016;2022-09-09T00:26:41;36.60;34.80
65072;DHT22;51663;52.310;17.016;2022-09-09T00:32:50;36.40;34.80
65072;DHT22;51663;52.310;17.016;2022-09-09T00:35:57;36.40;34.70
65072;DHT22;51663;52.310;17.016;2022-09-09T00:39:01;36.40;34.60
65072;DHT22;51663;52.310;17.016;2022-09-09T00:56:18;36.30;34.50
65072;DHT22;51663;52.310;17.016;2022-09-09T00:59:46;36.20;34.30
65072;DHT22;51663;52.310;17.016;2022-09-09T01:03:36;36.00;34.70
65072;DHT22;51663;52.310;17.016;2022-09-09T01:06:39;36.00;34.70
65072;DHT22;51663;52.310;17.016;2022-09-09T01:12:56;36.00;34.50
65072;DHT22;51663;52.310;17.016;2022-09-09T01:16:02;36.00;34.50
65072;DHT22;51663;52.310;17.016;2022-09-09T01:19:07;36.00;34.30
65072;DHT22;51663;52.310;17.016;2022-09-09T01:28:58;35.90;34.50
65072;DHT22;51663;52.310;17.016;2022-09-09T01:32:35;35.80;34.50
65072;DHT22;51663;52.310;17.016;2022-09-09T01:35:39;35.70;34.50
65072;DHT22;51663;52.310;17.016;2022-09-09T01:38:43;35.70;34.70
65072;DHT22;51663;52.310;17.016;2022-09-09T01:41:45;35.70;34.60
65072;DHT22;51663;52.310;17.016;2022-09-09T01:44:48;35.70;34.40
65072;DHT22;51663;52.310;17.016;2022-09-09T01:47:52;35.70;34.50
65072;DHT22;51663;52.310;17.016;2022-09-09T01:50:54;35.70;34.50
65072;DHT22;51663;52.310;17.016;2022-09-09T01:53:56;35.70;34.50
65072;DHT22;51663;52.310;17.016;2022-09-09T02:00:18;35.60;34.30
65072;DHT22;51663;52.310;17.016;2022-09-09T02:03:25;35.60;34.40
65072;DHT22;51663;52.310;17.016;2022-09-09T02:06:39;35.60;34.10
65072;DHT22;51663;52.310;17.016;2022-09-09T02:09:44;35.70;34.10
65072;DHT22;51663;52.310;17.016;2022-09-09T02:12:59;35.70;33.50
65072;DHT22;51663;52.310;17.016;2022-09-09T02:19:25;35.60;33.30
65072;DHT22;51663;52.310;17.016;2022-09-09T02:22:30;35.60;33.40
65072;DHT22;51663;52.310;17.016;2022-09-09T02:25:33;35.60;33.50
65072;DHT22;51663;52.310;17.016;2022-09-09T02:28:38;35.60;33.40
65072;DHT22;51663;52.310;17.016;2022-09-09T02:31:42;35.50;33.30
65072;DHT22;51663;52.310;17.016;2022-09-09T02:34:49;35.50;33.60
65072;DHT22;51663;52.310;17.016;2022-09-09T02:37:53;35.40;33.40
65072;DHT22;51663;52.310;17.016;2022-09-09T02:40:56;35.50;33.30
65072;DHT22;51663;52.310;17.016;2022-09-09T02:44:00;35.40;33.00
65072;DHT22;51663;52.310;17.016;2022-09-09T02:47:25;35.40;33.20
65072;DHT22;51663;52.310;17.016;2022-09-09T02:50:39;35.30;33.40
65072;DHT22;51663;52.310;17.016;2022-09-09T02:54:10;35.40;33.40
65072;DHT22;51663;52.310;17.016;2022-09-09T02:57:24;35.30;33.00
65072;DHT22;51663;52.310;17.016;2022-09-09T03:00:27;35.30;32.90
65072;DHT22;51663;52.310;17.016;2022-09-09T03:03:29;35.30;33.20
65072;DHT22;51663;52.310;17.016;2022-09-09T03:06:32;35.30;33.10
65072;DHT22;51663;52.310;17.016;2022-09-09T03:09:34;35.30;33.10
65072;DHT22;51663;52.310;17.016;2022-09-09T03:12:36;35.20;32.90
65072;DHT22;51663;52.310;17.016;2022-09-09T03:15:38;35.20;32.70
65072;DHT22;51663;52.310;17.016;2022-09-09T03:18:40;35.20;32.60
65072;DHT22;51663;52.310;17.016;2022-09-09T03:21:42;35.20;32.50
65072;DHT22;51663;52.310;17.016;2022-09-09T03:24:44;35.10;32.50
65072;DHT22;51663;52.310;17.016;2022-09-09T03:27:48;35.10;32.50
65072;DHT22;51663;52.310;17.016;2022-09-09T03:30:50;35.00;32.60
65072;DHT22;51663;52.310;17.016;2022-09-09T03:33:52;35.00;33.00
65072;DHT22;51663;52.310;17.016;2022-09-09T03:36:54;35.00;33.00
65072;DHT22;51663;52.310;17.016;2022-09-09T03:39:57;35.00;32.80
65072;DHT22;51663;52.310;17.016;2022-09-09T03:42:59;35.00;32.30
65072;DHT22;51663;52.310;17.016;2022-09-09T03:46:01;35.00;32.00
65072;DHT22;51663;52.310;17.016;2022-09-09T03:49:03;35.00;32.30
65072;DHT22;51663;52.310;17.016;2022-09-09T03:52:05;35.00;32.80
65072;DHT22;51663;52.310;17.016;2022-09-09T03:55:08;34.90;32.30
65072;DHT22;51663;52.310;17.016;2022-09-09T03:58:10;34.90;32.40
65072;DHT22;51663;52.310;17.016;2022-09-09T04:01:13;34.90;32.10
65072;DHT22;51663;52.310;17.016;2022-09-09T04:04:15;34.90;32.00
65072;DHT22;51663;52.310;17.016;2022-09-09T04:07:17;34.90;32.20
65072;DHT22;51663;52.310;17.016;2022-09-09T04:10:19;34.90;32.60
65072;DHT22;51663;52.310;17.016;2022-09-09T04:13:23;34.90;32.40
65072;DHT22;51663;52.310;17.016;2022-09-09T04:16:25;34.90;32.10
65072;DHT22;51663;52.310;17.016;2022-09-09T04:19:27;34.90;32.00
65072;DHT22;51663;52.310;17.016;2022-09-09T04:22:29;34.90;31.90
65072;DHT22;51663;52.310;17.016;2022-09-09T04:25:32;34.90;32.00
65072;DHT22;51663;52.310;17.016;2022-09-09T04:28:36;35.00;32.10
65072;DHT22;51663;52.310;17.016;2022-09-09T04:31:39;35.00;32.20
65072;DHT22;51663;52.310;17.016;2022-09-09T04:34:43;35.10;33.00
65072;DHT22;51663;52.310;17.016;2022-09-09T04:37:46;35.20;32.50
65072;DHT22;51663;52.310;17.016;2022-09-09T04:40:51;35.20;32.60
65072;DHT22;51663;52.310;17.016;2022-09-09T04:43:56;35.20;33.00
65072;DHT22;51663;52.310;17.016;2022-09-09T04:46:57;35.30;33.00
65072;DHT22;51663;52.310;17.016;2022-09-09T04:50:00;35.30;33.10
65072;DHT22;51663;52.310;17.016;2022-09-09T04:53:03;35.40;33.40
65072;DHT22;51663;52.310;17.016;2022-09-09T04:56:11;35.50;33.50
65072;DHT22;51663;52.310;17.016;2022-09-09T04:59:14;35.60;33.50
65072;DHT22;51663;52.310;17.016;2022-09-09T05:02:16;35.70;33.50
65072;DHT22;51663;52.310;17.016;2022-09-09T05:05:19;35.70;33.60
65072;DHT22;51663;52.310;17.016;2022-09-09T05:08:21;35.70;33.60
65072;DHT22;51663;52.310;17.016;2022-09-09T05:11:26;35.80;33.70
65072;DHT22;51663;52.310;17.016;2022-09-09T05:14:29;35.80;33.70
65072;DHT22;51663;52.310;17.016;2022-09-09T05:17:31;35.90;33.70
65072;DHT22;51663;52.310;17.016;2022-09-09T05:20:34;36.00;33.50
65072;DHT22;51663;52.310;17.016;2022-09-09T05:23:36;36.00;33.30
65072;DHT22;51663;52.310;17.016;2022-09-09T05:26:38;36.00;33.20
65072;DHT22;51663;52.310;17.016;2022-09-09T05:29:40;36.00;32.80
65072;DHT22;51663;52.310;17.016;2022-09-09T05:32:45;36.10;33.10
65072;DHT22;51663;52.310;17.016;2022-09-09T05:35:47;36.20;33.00
65072;DHT22;51663;52.310;17.016;2022-09-09T05:38:49;36.40;32.60
65072;DHT22;51663;52.310;17.016;2022-09-09T05:41:51;36.60;32.60
65072;DHT22;51663;52.310;17.016;2022-09-09T05:44:53;36.70;32.70
65072;DHT22;51663;52.310;17.016;2022-09-09T05:47:56;36.70;32.70
65072;DHT22;51663;52.310;17.016;2022-09-09T05:50:59;36.70;32.80
65072;DHT22;51663;52.310;17.016;2022-09-09T05:54:01;36.70;33.30
65072;DHT22;51663;52.310;17.016;2022-09-09T05:57:03;36.90;32.90
65072;DHT22;51663;52.310;17.016;2022-09-09T06:00:06;37.00;33.00
65072;DHT22;51663;52.310;17.016;2022-09-09T06:03:11;37.00;33.20
65072;DHT22;51663;52.310;17.016;2022-09-09T06:06:15;37.10;32.90
65072;DHT22;51663;52.310;17.016;2022-09-09T06:09:19;37.10;32.70
65072;DHT22;51663;52.310;17.016;2022-09-09T06:12:21;37.30;32.50
65072;DHT22;51663;52.310;17.016;2022-09-09T06:15:23;37.20;32.40
65072;DHT22;51663;52.310;17.016;2022-09-09T06:18:26;37.30;32.80
65072;DHT22;51663;52.310;17.016;2022-09-09T06:21:33;37.50;32.60
65072;DHT22;51663;52.310;17.016;2022-09-09T06:24:35;37.80;32.70
65072;DHT22;51663;52.310;17.016;2022-09-09T06:27:37;37.90;32.30
65072;DHT22;51663;52.310;17.016;2022-09-09T06:30:39;38.00;32.70
65072;DHT22;51663;52.310;17.016;2022-09-09T06:33:42;38.10;32.00
65072;DHT22;51663;52.310;17.016;2022-09-09T06:36:44;38.10;32.30
65072;DHT22;51663;52.310;17.016;2022-09-09T06:39:47;38.20;32.50
65072;DHT22;51663;52.310;17.016;2022-09-09T06:42:50;38.40;32.90
65072;DHT22;51663;52.310;17.016;2022-09-09T06:48:59;38.50;31.80
65072;DHT22;51663;52.310;17.016;2022-09-09T06:52:01;38.60;31.50
65072;DHT22;51663;52.310;17.016;2022-09-09T06:55:04;39.00;30.70
65072;DHT22;51663;52.310;17.016;2022-09-09T06:58:09;39.60;30.80
65072;DHT22;51663;52.310;17.016;2022-09-09T07:01:13;40.50;29.70
65072;DHT22;51663;52.310;17.016;2022-09-09T07:04:15;41.40;28.70
65072;DHT22;51663;52.310;17.016;2022-09-09T07:07:17;42.10;28.40
65072;DHT22;51663;52.310;17.016;2022-09-09T07:10:21;42.40;28.20
65072;DHT22;51663;52.310;17.016;2022-09-09T07:13:25;42.90;28.40
65072;DHT22;51663;52.310;17.016;2022-09-09T07:16:28;43.40;27.00
65072;DHT22;51663;52.310;17.016;2022-09-09T07:19:31;43.60;27.20
65072;DHT22;51663;52.310;17.016;2022-09-09T07:22:33;44.10;26.50
65072;DHT22;51663;52.310;17.016;2022-09-09T07:25:35;44.60;26.50
65072;DHT22;51663;52.310;17.016;2022-09-09T07:28:37;44.80;25.70
65072;DHT22;51663;52.310;17.016;2022-09-09T07:31:39;44.50;26.30
65072;DHT22;51663;52.310;17.016;2022-09-09T07:34:42;43.90;26.10
65072;DHT22;51663;52.310;17.016;2022-09-09T07:37:44;43.30;26.70
65072;DHT22;51663;52.310;17.016;2022-09-09T07:40:51;42.80;27.40
65072;DHT22;51663;52.310;17.016;2022-09-09T07:43:54;42.30;27.70
65072;DHT22;51663;52.310;17.016;2022-09-09T07:46:56;42.10;28.30
65072;DHT22;51663;52.310;17.016;2022-09-09T07:49:58;41.80;28.40
65072;DHT22;51663;52.310;17.016;2022-09-09T07:53:00;41.90;28.40
65072;DHT22;51663;52.310;17.016;2022-09-09T07:56:06;42.10;27.70
65072;DHT22;51663;52.310;17.016;2022-09-09T07:59:08;42.30;27.90
65072;DHT22;51663;52.310;17.016;2022-09-09T08:02:12;42.90;27.50
65072;DHT22;51663;52.310;17.016;2022-09-09T08:05:14;42.90;27.20
65072;DHT22;51663;52.310;17.016;2022-09-09T08:08:16;42.60;27.60
65072;DHT22;51663;52.310;17.016;2022-09-09T08:11:19;42.00;27.90
65072;DHT22;51663;52.310;17.016;2022-09-09T08:14:21;41.60;28.70
65072;DHT22;51663;52.310;17.016;2022-09-09T08:17:24;41.10;28.50
65072;DHT22;51663;52.310;17.016;2022-09-09T08:20:26;40.80;29.30
65072;DHT22;51663;52.310;17.016;2022-09-09T08:23:30;40.50;29.40
65072;DHT22;51663;52.310;17.016;2022-09-09T08:26:37;40.20;29.90
65072;DHT22;51663;52.310;17.016;2022-09-09T08:29:40;40.00;30.20
65072;DHT22;51663;52.310;17.016;2022-09-09T08:32:42;39.80;30.20
65072;DHT22;51663;52.310;17.016;2022-09-09T08:35:51;39.70;30.00
65072;DHT22;51663;52.310;17.016;2022-09-09T08:38:56;39.50;30.30
65072;DHT22;51663;52.310;17.016;2022-09-09T08:49:00;39.40;30.90
65072;DHT22;51663;52.310;17.016;2022-09-09T08:52:08;39.40;31.10
65072;DHT22;51663;52.310;17.016;2022-09-09T08:58:33;39.30;31.20
65072;DHT22;51663;52.310;17.016;2022-09-09T09:02:14;39.20;31.10
65072;DHT22;51663;52.310;17.016;2022-09-09T09:05:37;39.00;31.20
65072;DHT22;51663;52.310;17.016;2022-09-09T09:12:18;39.00;30.40
65072;DHT22;51663;52.310;17.016;2022-09-09T09:15:25;39.10;31.10
65072;DHT22;51663;52.310;17.016;2022-09-09T09:18:32;39.00;30.70
65072;DHT22;51663;52.310;17.016;2022-09-09T09:21:53;39.10;30.40
65072;DHT22;51663;52.310;17.016;2022-09-09T09:25:08;39.20;31.00
65072;DHT22;51663;52.310;17.016;2022-09-09T09:28:17;39.20;30.60
65072;DHT22;51663;52.310;17.016;2022-09-09T09:31:20;39.40;30.40
65072;DHT22;51663;52.310;17.016;2022-09-09T09:34:23;39.40;29.70
65072;DHT22;51663;52.310;17.016;2022-09-09T09:37:29;39.40;29.90
65072;DHT22;51663;52.310;17.016;2022-09-09T09:40:32;39.40;29.80
65072;DHT22;51663;52.310;17.016;2022-09-09T09:43:40;39.40;30.00
65072;DHT22;51663;52.310;17.016;2022-09-09T09:46:44;39.50;29.70
65072;DHT22;51663;52.310;17.016;2022-09-09T09:53:01;39.50;29.70
65072;DHT22;51663;52.310;17.016;2022-09-09T09:56:14;39.70;30.10
65072;DHT22;51663;52.310;17.016;2022-09-09T09:59:36;39.70;29.60
65072;DHT22;51663;52.310;17.016;2022-09-09T10:02:42;39.70;30.00
65072;DHT22;51663;52.310;17.016;2022-09-09T10:05:46;39.60;29.90
65072;DHT22;51663;52.310;17.016;2022-09-09T10:08:48;39.60;29.40
65072;DHT22;51663;52.310;17.016;2022-09-09T10:19:05;39.60;29.10
65072;DHT22;51663;52.310;17.016;2022-09-09T10:29:20;39.80;29.50
65072;DHT22;51663;52.310;17.016;2022-09-09T10:42:26;40.00;29.60
65072;DHT22;51663;52.310;17.016;2022-09-09T10:45:41;40.00;29.20
65072;DHT22;51663;52.310;17.016;2022-09-09T10:56:04;40.30;28.70
65072;DHT22;51663;52.310;17.016;2022-09-09T10:59:18;40.50;27.80
65072;DHT22;51663;52.310;17.016;2022-09-09T11:02:32;40.60;27.90
65072;DHT22;51663;52.310;17.016;2022-09-09T11:05:43;40.80;28.30
65072;DHT22;51663;52.310;17.016;2022-09-09T11:08:47;41.00;28.00
65072;DHT22;51663;52.310;17.016;2022-09-09T11:11:57;41.00;27.90
65072;DHT22;51663;52.310;17.016;2022-09-09T11:15:20;41.00;27.60
65072;DHT22;51663;52.310;17.016;2022-09-09T11:18:24;41.00;27.20
65072;DHT22;51663;52.310;17.016;2022-09-09T11:21:34;41.00;27.00
65072;DHT22;51663;52.310;17.016;2022-09-09T11:31:27;40.80;27.50
65072;DHT22;51663;52.310;17.016;2022-09-09T11:38:05;41.10;27.40
65072;DHT22;51663;52.310;17.016;2022-09-09T11:41:11;40.90;27.00
65072;DHT22;51663;52.310;17.016;2022-09-09T11:44:28;40.90;26.80
65072;DHT22;51663;52.310;17.016;2022-09-09T11:47:31;40.60;26.10
65072;DHT22;51663;52.310;17.016;2022-09-09T11:50:35;40.60;26.30
65072;DHT22;51663;52.310;17.016;2022-09-09T11:57:04;40.50;26.90
65072;DHT22;51663;52.310;17.016;2022-09-09T12:00:39;40.50;26.50
65072;DHT22;51663;52.310;17.016;2022-09-09T12:03:49;40.30;26.90
65072;DHT22;51663;52.310;17.016;2022-09-09T12:10:29;40.30;27.00
65072;DHT22;51663;52.310;17.016;2022-09-09T12:13:33;40.20;27.10
65072;DHT22;51663;52.310;17.016;2022-09-09T12:16:37;40.40;26.60
65072;DHT22;51663;52.310;17.016;2022-09-09T12:19:40;40.60;26.70
65072;DHT22;51663;52.310;17.016;2022-09-09T12:32:25;41.00;26.30
65072;DHT22;51663;52.310;17.016;2022-09-09T12:35:30;40.90;26.10
65072;DHT22;51663;52.310;17.016;2022-09-09T12:38:38;40.60;26.10
65072;DHT22;51663;52.310;17.016;2022-09-09T12:41:41;40.40;26.90
65072;DHT22;51663;52.310;17.016;2022-09-09T12:44:56;40.40;26.70
65072;DHT22;51663;52.310;17.016;2022-09-09T12:48:01;40.50;26.20
65072;DHT22;51663;52.310;17.016;2022-09-09T12:51:19;40.50;26.40
65072;DHT22;51663;52.310;17.016;2022-09-09T12:54:23;40.50;26.20
65072;DHT22;51663;52.310;17.016;2022-09-09T12:57:26;40.60;26.30
65072;DHT22;51663;52.310;17.016;2022-09-09T13:00:33;40.40;25.60
65072;DHT22;51663;52.310;17.016;2022-09-09T13:03:42;40.40;25.70
65072;DHT22;51663;52.310;17.016;2022-09-09T13:06:44;40.30;26.30
65072;DHT22;51663;52.310;17.016;2022-09-09T13:09:47;40.20;26.40
65072;DHT22;51663;52.310;17.016;2022-09-09T13:12:50;40.30;26.30
65072;DHT22;51663;52.310;17.016;2022-09-09T13:15:55;40.20;26.20
65072;DHT22;51663;52.310;17.016;2022-09-09T13:19:17;40.50;26.40
65072;DHT22;51663;52.310;17.016;2022-09-09T13:22:35;40.70;26.40
65072;DHT22;51663;52.310;17.016;2022-09-09T13:25:38;40.80;25.60
65072;DHT22;51663;52.310;17.016;2022-09-09T13:28:44;40.80;25.90
65072;DHT22;51663;52.310;17.016;2022-09-09T13:31:48;40.80;25.50
65072;DHT22;51663;52.310;17.016;2022-09-09T13:34:59;40.80;26.20
65072;DHT22;51663;52.310;17.016;2022-09-09T13:38:08;40.70;25.80
65072;DHT22;51663;52.310;17.016;2022-09-09T13:41:19;40.60;26.30
65072;DHT22;51663;52.310;17.016;2022-09-09T13:44:37;40.40;25.70
65072;DHT22;51663;52.310;17.016;2022-09-09T13:47:40;40.30;26.00
65072;DHT22;51663;52.310;17.016;2022-09-09T13:50:57;40.10;26.30
65072;DHT22;51663;52.310;17.016;2022-09-09T13:53:59;39.90;26.50
65072;DHT22;51663;52.310;17.016;2022-09-09T13:57:02;40.20;26.60
65072;DHT22;51663;52.310;17.016;2022-09-09T14:00:09;40.30;26.80
65072;DHT22;51663;52.310;17.016;2022-09-09T14:03:12;40.40;26.50
65072;DHT22;51663;52.310;17.016;2022-09-09T14:06:14;40.40;26.40
65072;DHT22;51663;52.310;17.016;2022-09-09T14:09:17;40.50;26.40
65072;DHT22;51663;52.310;17.016;2022-09-09T14:12:19;40.40;26.10
65072;DHT22;51663;52.310;17.016;2022-09-09T14:15:22;40.60;25.90
65072;DHT22;51663;52.310;17.016;2022-09-09T14:18:24;40.70;25.90
65072;DHT22;51663;52.310;17.016;2022-09-09T14:21:27;40.80;26.30
65072;DHT22;51663;52.310;17.016;2022-09-09T14:24:29;40.60;25.80
65072;DHT22;51663;52.310;17.016;2022-09-09T14:27:31;40.50;25.60
65072;DHT22;51663;52.310;17.016;2022-09-09T14:30:34;40.40;25.60
65072;DHT22;51663;52.310;17.016;2022-09-09T14:33:36;40.40;25.70
65072;DHT22;51663;52.310;17.016;2022-09-09T14:36:38;40.30;26.30
65072;DHT22;51663;52.310;17.016;2022-09-09T14:39:40;40.30;25.80
65072;DHT22;51663;52.310;17.016;2022-09-09T14:42:42;40.00;26.50
65072;DHT22;51663;52.310;17.016;2022-09-09T14:45:44;40.10;26.10
65072;DHT22;51663;52.310;17.016;2022-09-09T14:48:47;40.00;26.20
65072;DHT22;51663;52.310;17.016;2022-09-09T14:51:51;39.90;26.60
65072;DHT22;51663;52.310;17.016;2022-09-09T14:54:53;40.00;26.70
65072;DHT22;51663;52.310;17.016;2022-09-09T14:57:55;40.10;26.70
65072;DHT22;51663;52.310;17.016;2022-09-09T15:01:06;40.10;26.20
65072;DHT22;51663;52.310;17.016;2022-09-09T15:04:12;40.00;26.00
65072;DHT22;51663;52.310;17.016;2022-09-09T15:07:16;40.00;26.70
65072;DHT22;51663;52.310;17.016;2022-09-09T15:10:21;40.10;26.50
65072;DHT22;51663;52.310;17.016;2022-09-09T15:13:23;40.00;26.70
65072;DHT22;51663;52.310;17.016;2022-09-09T15:16:27;40.10;26.50
65072;DHT22;51663;52.310;17.016;2022-09-09T15:19:29;40.20;26.60
65072;DHT22;51663;52.310;17.016;2022-09-09T15:22:32;40.20;26.40
65072;DHT22;51663;52.310;17.016;2022-09-09T15:25:34;40.30;26.60
65072;DHT22;51663;52.310;17.016;2022-09-09T15:28:37;40.20;26.50
65072;DHT22;51663;52.310;17.016;2022-09-09T15:31:39;40.00;26.80
65072;DHT22;51663;52.310;17.016;2022-09-09T15:34:42;39.90;26.70
65072;DHT22;51663;52.310;17.016;2022-09-09T15:37:44;39.70;26.80
65072;DHT22;51663;52.310;17.016;2022-09-09T15:40:54;39.70;26.90
65072;DHT22;51663;52.310;17.016;2022-09-09T15:43:57;39.70;27.00
65072;DHT22;51663;52.310;17.016;2022-09-09T15:46:59;39.70;26.90
65072;DHT22;51663;52.310;17.016;2022-09-09T15:50:01;39.70;27.00
65072;DHT22;51663;52.310;17.016;2022-09-09T15:53:03;39.70;26.80
65072;DHT22;51663;52.310;17.016;2022-09-09T15:56:08;39.60;27.10
65072;DHT22;51663;52.310;17.016;2022-09-09T15:59:10;39.50;27.40
65072;DHT22;51663;52.310;17.016;2022-09-09T16:02:13;39.40;27.60
65072;DHT22;51663;52.310;17.016;2022-09-09T16:05:17;39.50;27.60
65072;DHT22;51663;52.310;17.016;2022-09-09T16:08:19;39.40;27.50
65072;DHT22;51663;52.310;17.016;2022-09-09T16:11:22;39.50;27.60
65072;DHT22;51663;52.310;17.016;2022-09-09T16:14:24;39.50;27.70
65072;DHT22;51663;52.310;17.016;2022-09-09T16:17:27;39.50;27.90
65072;DHT22;51663;52.310;17.016;2022-09-09T16:20:29;39.50;27.60
65072;DHT22;51663;52.310;17.016;2022-09-09T16:23:32;39.40;27.50
65072;DHT22;51663;52.310;17.016;2022-09-09T16:26:38;39.40;27.40
65072;DHT22;51663;52.310;17.016;2022-09-09T16:29:40;39.40;27.60
65072;DHT22;51663;52.310;17.016;2022-09-09T16:32:42;39.50;27.60
65072;DHT22;51663;52.310;17.016;2022-09-09T16:35:44;39.50;27.70
65072;DHT22;51663;52.310;17.016;2022-09-09T16:38:47;39.50;27.90
65072;DHT22;51663;52.310;17.016;2022-09-09T16:41:49;39.40;28.30
65072;DHT22;51663;52.310;17.016;2022-09-09T16:44:51;39.40;28.40
65072;DHT22;51663;52.310;17.016;2022-09-09T16:47:53;39.40;28.90
65072;DHT22;51663;52.310;17.016;2022-09-09T16:51:04;39.40;29.10
65072;DHT22;51663;52.310;17.016;2022-09-09T16:54:08;39.30;28.60
65072;DHT22;51663;52.310;17.016;2022-09-09T16:57:10;39.20;28.40
65072;DHT22;51663;52.310;17.016;2022-09-09T17:00:12;39.10;28.90
65072;DHT22;51663;52.310;17.016;2022-09-09T17:03:14;39.10;28.80
65072;DHT22;51663;52.310;17.016;2022-09-09T17:06:16;39.00;28.90
65072;DHT22;51663;52.310;17.016;2022-09-09T17:09:19;38.90;28.90
65072;DHT22;51663;52.310;17.016;2022-09-09T17:12:21;38.90;28.80
65072;DHT22;51663;52.310;17.016;2022-09-09T17:15:23;38.80;28.80
65072;DHT22;51663;52.310;17.016;2022-09-09T17:18:26;38.70;28.90
65072;DHT22;51663;52.310;17.016;2022-09-09T17:21:30;38.60;29.50
65072;DHT22;51663;52.310;17.016;2022-09-09T17:24:33;38.50;29.90
65072;DHT22;51663;52.310;17.016;2022-09-09T17:27:35;38.40;29.80
65072;DHT22;51663;52.310;17.016;2022-09-09T17:30:38;38.30;29.80
65072;DHT22;51663;52.310;17.016;2022-09-09T17:33:42;38.20;30.00
65072;DHT22;51663;52.310;17.016;2022-09-09T17:36:45;38.10;30.00
65072;DHT22;51663;52.310;17.016;2022-09-09T17:39:47;37.90;30.10
65072;DHT22;51663;52.310;17.016;2022-09-09T17:42:49;37.90;30.00
65072;DHT22;51663;52.310;17.016;2022-09-09T17:45:52;37.80;30.50
65072;DHT22;51663;52.310;17.016;2022-09-09T17:48:57;37.70;30.40
65072;DHT22;51663;52.310;17.016;2022-09-09T17:51:59;37.60;30.50
65072;DHT22;51663;52.310;17.016;2022-09-09T17:55:01;37.60;30.70
65072;DHT22;51663;52.310;17.016;2022-09-09T17:58:03;37.50;30.80
65072;DHT22;51663;52.310;17.016;2022-09-09T18:01:09;37.50;30.90
65072;DHT22;51663;52.310;17.016;2022-09-09T18:04:13;37.40;31.20
65072;DHT22;51663;52.310;17.016;2022-09-09T18:07:15;37.30;31.40
65072;DHT22;51663;52.310;17.016;2022-09-09T18:10:17;37.20;31.30
65072;DHT22;51663;52.310;17.016;2022-09-09T18:13:20;37.20;31.50
65072;DHT22;51663;52.310;17.016;2022-09-09T18:16:23;37.10;31.50
65072;DHT22;51663;52.310;17.016;2022-09-09T18:19:27;37.10;31.60
65072;DHT22;51663;52.310;17.016;2022-09-09T18:22:32;37.00;31.60
65072;DHT22;51663;52.310;17.016;2022-09-09T18:25:38;37.00;32.00
65072;DHT22;51663;52.310;17.016;2022-09-09T18:28:42;36.90;31.80
65072;DHT22;51663;52.310;17.016;2022-09-09T18:31:46;36.80;32.00
65072;DHT22;51663;52.310;17.016;2022-09-09T18:34:48;36.80;32.10
65072;DHT22;51663;52.310;17.016;2022-09-09T18:37:56;36.70;32.20
65072;DHT22;51663;52.310;17.016;2022-09-09T18:40:58;36.70;32.20
65072;DHT22;51663;52.310;17.016;2022-09-09T18:44:07;36.60;32.20
65072;DHT22;51663;52.310;17.016;2022-09-09T18:47:10;36.50;32.30
65072;DHT22;51663;52.310;17.016;2022-09-09T18:50:13;36.50;32.20
65072;DHT22;51663;52.310;17.016;2022-09-09T18:53:15;36.50;32.30
65072;DHT22;51663;52.310;17.016;2022-09-09T18:56:18;36.50;32.40
65072;DHT22;51663;52.310;17.016;2022-09-09T18:59:21;36.40;32.30
65072;DHT22;51663;52.310;17.016;2022-09-09T19:02:24;36.30;32.40
65072;DHT22;51663;52.310;17.016;2022-09-09T19:05:26;36.30;32.60
65072;DHT22;51663;52.310;17.016;2022-09-09T19:08:28;36.30;32.50
65072;DHT22;51663;52.310;17.016;2022-09-09T19:11:31;36.30;32.50
65072;DHT22;51663;52.310;17.016;2022-09-09T19:14:33;36.20;32.30
65072;DHT22;51663;52.310;17.016;2022-09-09T19:17:35;36.20;32.40
65072;DHT22;51663;52.310;17.016;2022-09-09T19:20:37;36.20;32.60
65072;DHT22;51663;52.310;17.016;2022-09-09T19:23:40;36.20;32.80
65072;DHT22;51663;52.310;17.016;2022-09-09T19:26:46;36.20;32.60
65072;DHT22;51663;52.310;17.016;2022-09-09T19:29:49;36.10;32.90
65072;DHT22;51663;52.310;17.016;2022-09-09T19:32:57;36.10;32.70
65072;DHT22;51663;52.310;17.016;2022-09-09T19:36:05;36.10;32.40
65072;DHT22;51663;52.310;17.016;2022-09-09T19:39:09;36.10;32.40
65072;DHT22;51663;52.310;17.016;2022-09-09T19:42:11;36.10;32.50
65072;DHT22;51663;52.310;17.016;2022-09-09T19:45:14;36.10;32.50
65072;DHT22;51663;52.310;17.016;2022-09-09T19:48:15;36.00;32.50
65072;DHT22;51663;52.310;17.016;2022-09-09T19:51:20;36.00;32.30
65072;DHT22;51663;52.310;17.016;2022-09-09T19:54:22;36.00;32.30
65072;DHT22;51663;52.310;17.016;2022-09-09T19:57:24;35.90;32.40
65072;DHT22;51663;52.310;17.016;2022-09-09T20:00:31;35.90;32.20
65072;DHT22;51663;52.310;17.016;2022-09-09T20:03:35;35.90;32.50
65072;DHT22;51663;52.310;17.016;2022-09-09T20:06:40;35.90;32.70
65072;DHT22;51663;52.310;17.016;2022-09-09T20:09:43;35.80;32.60
65072;DHT22;51663;52.310;17.016;2022-09-09T20:12:45;35.90;33.10
65072;DHT22;51663;52.310;17.016;2022-09-09T20:19:01;35.90;33.00
65072;DHT22;51663;52.310;17.016;2022-09-09T20:22:05;35.80;32.90
65072;DHT22;51663;52.310;17.016;2022-09-09T20:25:06;35.80;33.40
65072;DHT22;51663;52.310;17.016;2022-09-09T20:28:09;35.90;32.60
65072;DHT22;51663;52.310;17.016;2022-09-09T20:31:19;35.90;33.00
65072;DHT22;51663;52.310;17.016;2022-09-09T20:34:22;35.80;32.70
65072;DHT22;51663;52.310;17.016;2022-09-09T20:37:26;35.90;32.70
65072;DHT22;51663;52.310;17.016;2022-09-09T20:40:28;35.80;32.70
65072;DHT22;51663;52.310;17.016;2022-09-09T20:43:34;35.80;32.60
65072;DHT22;51663;52.310;17.016;2022-09-09T20:46:37;35.80;32.60
65072;DHT22;51663;52.310;17.016;2022-09-09T20:49:39;35.80;32.70
65072;DHT22;51663;52.310;17.016;2022-09-09T20:52:41;35.80;32.70
65072;DHT22;51663;52.310;17.016;2022-09-09T20:55:43;35.80;32.80
65072;DHT22;51663;52.310;17.016;2022-09-09T20:58:46;35.70;32.80
65072;DHT22;51663;52.310;17.016;2022-09-09T21:01:48;35.70;32.60
65072;DHT22;51663;52.310;17.016;2022-09-09T21:04:51;35.80;32.80
65072;DHT22;51663;52.310;17.016;2022-09-09T21:07:53;35.80;32.90
65072;DHT22;51663;52.310;17.016;2022-09-09T21:10:57;35.80;32.90